createdAt,value
2018-07-03T21:20:28.023Z,4.1
2018-07-03T21:20:46.153Z,5
2018-07-03T21:21:04.796Z,6.6
2018-07-03T21:21:22.975Z,6.7
2018-07-03T21:21:41.114Z,5.7
2018-07-03T21:21:59.519Z,6.5
2018-07-03T21:22:17.546Z,9
2018-07-03T21:22:35.988Z,7
2018-07-03T21:22:54.178Z,6.2
2018-07-03T21:23:10.460Z,7.1
2018-07-03T21:23:27.585Z,8.4
2018-07-03T21:23:44.412Z,7
2018-07-03T21:24:01.271Z,6.3
2018-07-03T21:24:18.075Z,6.8
2018-07-03T21:24:34.871Z,5.7
2018-07-03T21:24:51.653Z,6.6
2018-07-03T21:25:08.465Z,7.2
2018-07-03T21:25:25.336Z,7
2018-07-03T21:29:59.984Z,8
2018-07-03T21:30:16.819Z,10
2018-07-03T21:30:33.675Z,33.299999
2018-07-03T21:30:50.503Z,35.900002
2018-07-03T21:31:07.774Z,14.8
2018-07-03T21:31:24.607Z,12.4
2018-07-03T21:31:41.478Z,11.2
2018-07-03T21:31:58.366Z,10.8
2018-07-03T21:32:15.136Z,11.3
2018-07-03T21:32:31.969Z,11.3
2018-07-03T21:32:48.812Z,10.5
2018-07-03T21:33:05.657Z,11.3
2018-07-03T21:33:22.502Z,10.7
2018-07-03T21:33:39.292Z,9.4
2018-07-03T21:33:56.115Z,9.4
2018-07-03T21:34:12.931Z,9
2018-07-03T21:34:29.714Z,8.5
2018-07-03T21:34:46.523Z,9.9
2018-07-03T21:35:03.366Z,8.5
2018-07-03T21:35:20.231Z,7.6
2018-07-03T21:35:37.672Z,8
2018-07-03T21:35:54.462Z,9.8
2018-07-03T21:36:11.285Z,12
2018-07-03T21:36:28.063Z,12.1
2018-07-03T21:36:44.825Z,10
2018-07-03T21:37:01.628Z,9.5
2018-07-03T21:37:18.416Z,8.7
2018-07-03T21:37:35.177Z,9
2018-07-03T21:37:52.200Z,7.6
2018-07-03T21:38:08.994Z,7.6
2018-07-03T21:38:25.765Z,9.1
2018-07-03T21:38:42.590Z,9.2
2018-07-03T21:38:59.298Z,8.6
2018-07-03T21:39:16.064Z,9.3
2018-07-03T21:39:32.840Z,10.9
2018-07-03T21:39:49.604Z,11.6
2018-07-03T21:40:06.425Z,8.7
2018-07-03T21:40:23.220Z,9.3
2018-07-03T21:40:39.950Z,11.7
2018-07-03T21:40:56.719Z,11.3
2018-07-03T21:41:13.495Z,9
2018-07-03T21:41:30.262Z,9
2018-07-03T21:41:47.027Z,9.7
2018-07-03T21:42:03.771Z,14
2018-07-03T21:42:20.561Z,14.8
2018-07-03T21:42:37.333Z,10.5
2018-07-03T21:42:54.799Z,10.4
2018-07-03T21:43:11.411Z,11
2018-07-03T21:43:28.202Z,11.6
2018-07-03T21:43:45.024Z,9.6
2018-07-03T21:44:01.820Z,8.4
2018-07-03T21:44:19.016Z,10
2018-07-03T21:44:35.759Z,10.6
2018-07-03T21:44:52.554Z,10.9
2018-07-03T21:45:09.363Z,9.6
2018-07-03T21:45:26.161Z,11.1
2018-07-03T21:45:43.000Z,11.3
2018-07-03T21:45:59.877Z,11.2
2018-07-03T21:46:16.580Z,11.6
2018-07-03T21:46:33.310Z,10.9
2018-07-03T21:46:50.518Z,11.5
2018-07-03T21:47:07.328Z,13.5
2018-07-03T21:47:25.714Z,14.4
2018-07-03T21:47:42.583Z,14.4
2018-07-03T21:47:59.926Z,12.8
2018-07-03T21:48:16.733Z,11.4
2018-07-03T21:48:34.536Z,10.2
2018-07-03T21:48:51.383Z,9.3
2018-07-03T21:49:08.209Z,10.2
2018-07-03T21:49:25.034Z,10.3
2018-07-03T21:49:42.818Z,12.4
2018-07-03T21:50:00.001Z,13.2
2018-07-03T21:50:16.827Z,13.1
2018-07-03T21:50:33.661Z,11.8
2018-07-03T21:50:50.529Z,12
2018-07-03T21:51:07.337Z,11.1
2018-07-03T21:51:25.114Z,13.4
2018-07-03T21:51:41.939Z,14.5
2018-07-03T21:51:58.728Z,12.7
2018-07-03T21:52:15.537Z,13.7
2018-07-03T21:52:32.291Z,15
2018-07-03T21:52:49.519Z,13
2018-07-03T21:53:06.291Z,11.7
2018-07-03T21:53:23.089Z,10.4
2018-07-03T21:53:39.917Z,11
2018-07-03T21:53:56.730Z,11.3
2018-07-03T21:54:13.563Z,10.5
2018-07-03T21:54:30.394Z,10.2
2018-07-03T21:54:47.216Z,8.5
2018-07-03T21:55:04.051Z,9.1
2018-07-03T21:55:20.865Z,10.6
2018-07-03T21:55:37.682Z,12.2
2018-07-03T21:55:54.508Z,13.4
2018-07-03T21:56:11.341Z,11.1
2018-07-03T21:56:28.176Z,12
2018-07-03T21:56:44.999Z,13
2018-07-03T21:57:01.820Z,11.2
2018-07-03T21:57:18.639Z,11.8
2018-07-03T21:57:35.469Z,11.5
2018-07-03T21:57:52.697Z,12.9
2018-07-03T21:58:09.532Z,14.5
2018-07-03T21:58:26.363Z,12.7
2018-07-03T21:58:43.178Z,12.8
2018-07-03T21:58:59.980Z,11.8
2018-07-03T21:59:17.158Z,11
2018-07-03T21:59:34.855Z,11
2018-07-03T21:59:51.669Z,12.4
2018-07-03T22:00:08.500Z,14
2018-07-03T22:00:25.367Z,11.6
2018-07-03T22:00:42.184Z,11.7
2018-07-03T22:00:59.798Z,11.7
2018-07-03T22:01:17.619Z,12.5
2018-07-03T22:01:34.450Z,12.3
2018-07-03T22:01:51.269Z,12.6
2018-07-03T22:02:08.103Z,11.9
2018-07-03T22:02:24.891Z,10
2018-07-03T22:02:41.638Z,10
2018-07-03T22:02:58.410Z,10.6
2018-07-03T22:03:15.165Z,9.7
2018-07-03T22:03:31.925Z,9.8
2018-07-03T22:03:48.696Z,11.7
2018-07-03T22:04:05.467Z,12.9
2018-07-03T22:04:22.238Z,11.2
2018-07-03T22:04:39.011Z,10
2018-07-03T22:04:55.843Z,9.1
2018-07-03T22:05:13.550Z,11.5
2018-07-03T22:05:29.456Z,13
2018-07-03T22:05:46.728Z,10.5
2018-07-03T22:06:03.502Z,10.9
2018-07-03T22:06:21.705Z,11.1
2018-07-03T22:06:38.970Z,10
2018-07-03T22:06:56.757Z,9.5
2018-07-03T22:07:18.557Z,9.8
2018-07-03T22:07:37.134Z,11.7
2018-07-03T22:07:54.323Z,10
2018-07-03T22:08:11.126Z,10
2018-07-03T22:08:27.979Z,11.5
2018-07-03T22:08:44.764Z,12.3
2018-07-03T22:09:01.606Z,9.8
2018-07-03T22:09:18.417Z,10.3
2018-07-03T22:09:35.233Z,9.9
2018-07-03T22:09:52.328Z,10.9
2018-07-03T22:10:09.149Z,11.6
2018-07-03T22:10:25.978Z,12.8
2018-07-03T22:10:42.807Z,10.5
2018-07-03T22:10:59.621Z,9.5
2018-07-03T22:11:16.383Z,10.7
2018-07-03T22:11:33.130Z,11.1
2018-07-03T22:11:49.943Z,10.2
2018-07-03T22:12:06.674Z,10.3
2018-07-03T22:12:23.491Z,11.8
2018-07-03T22:12:40.332Z,11.5
2018-07-03T22:12:57.160Z,11.2
2018-07-03T22:13:13.974Z,11.7
2018-07-03T22:13:30.806Z,11.4
2018-07-03T22:13:47.629Z,11.3
2018-07-03T22:14:04.408Z,12.7
2018-07-03T22:14:21.553Z,13.2
2018-07-03T22:14:38.310Z,11.5
2018-07-03T22:14:56.048Z,12.7
2018-07-03T22:15:12.859Z,13.1
2018-07-03T22:15:29.663Z,12.2
2018-07-03T22:15:46.462Z,13.7
2018-07-03T22:16:03.248Z,13.1
2018-07-03T22:16:20.118Z,10.2
2018-07-03T22:16:37.487Z,9.3
2018-07-03T22:16:54.692Z,9.6
2018-07-03T22:17:11.751Z,11.9
2018-07-03T22:17:28.494Z,12.9
2018-07-03T22:17:45.277Z,11.9
2018-07-03T22:18:02.505Z,9.5
2018-07-03T22:18:19.727Z,9.7
2018-07-03T22:18:36.484Z,10.9
2018-07-03T22:18:53.267Z,9.9
2018-07-03T22:19:11.293Z,10.3
2018-07-03T22:19:28.535Z,11.7
2018-07-03T22:19:45.355Z,12.2
2018-07-03T22:20:02.242Z,12.3
2018-07-03T22:20:19.076Z,11.4
2018-07-03T22:20:35.809Z,9.4
2018-07-03T22:20:52.565Z,9.2
2018-07-03T22:21:10.176Z,11.9
2018-07-03T22:21:26.951Z,12.3
2018-07-03T22:21:43.726Z,10.5
2018-07-03T22:22:00.829Z,11
2018-07-03T22:22:17.661Z,10.4
2018-07-03T22:22:34.474Z,15.4
2018-07-03T22:22:51.308Z,16.799999
2018-07-03T22:23:08.137Z,12.5
2018-07-03T22:23:24.956Z,11.8
2018-07-03T22:23:41.791Z,11.6
2018-07-03T22:23:58.613Z,12.9
2018-07-03T22:24:15.369Z,12.2
2018-07-03T22:24:32.231Z,12.2
2018-07-03T22:24:48.979Z,10.8
2018-07-03T22:25:05.696Z,10.9
2018-07-03T22:25:22.462Z,9.8
2018-07-03T22:25:39.265Z,9.2
2018-07-03T22:25:56.060Z,10.5
2018-07-03T22:26:12.846Z,11.7
2018-07-03T22:26:29.619Z,12.8
2018-07-03T22:26:46.420Z,13.9
2018-07-03T22:27:03.263Z,12.9
2018-07-03T22:27:20.193Z,10.2
2018-07-03T22:27:38.053Z,9.7
2018-07-03T22:27:53.968Z,10
2018-07-03T22:28:10.723Z,10.9
2018-07-03T22:28:27.472Z,12.5
2018-07-03T22:28:44.272Z,16.4
2018-07-03T22:29:01.052Z,13.7
2018-07-03T22:29:17.806Z,13.7
2018-07-03T22:29:34.545Z,14.5
2018-07-03T22:29:51.269Z,13.5
2018-07-03T22:30:15.495Z,8.8
2018-07-03T22:30:33.675Z,9.8
2018-07-03T22:30:50.448Z,10.3
2018-07-03T22:31:07.404Z,12.3
2018-07-03T22:31:24.246Z,13.9
2018-07-03T22:31:41.106Z,12.3
2018-07-03T22:32:05.668Z,19.1
2018-07-03T22:32:22.603Z,16.5
2018-07-03T22:32:39.453Z,14.9
2018-07-03T22:33:13.772Z,10.7
2018-07-03T22:33:30.556Z,12.1
2018-07-03T22:33:47.362Z,11.8
2018-07-03T22:34:05.126Z,10.8
2018-07-03T22:34:21.952Z,10.9
2018-07-03T22:34:38.767Z,11.8
2018-07-03T22:34:55.604Z,12.4
2018-07-03T22:35:12.443Z,13.6
2018-07-03T22:35:29.264Z,16.200001
2018-07-03T22:35:46.483Z,14.7
2018-07-03T22:36:03.814Z,13
2018-07-03T22:36:21.108Z,13.1
2018-07-03T22:36:37.916Z,14
2018-07-03T22:36:54.753Z,14.8
2018-07-03T22:37:11.596Z,14.9
2018-07-03T22:37:28.425Z,12.9
2018-07-03T22:37:45.203Z,13.1
2018-07-03T22:38:01.986Z,14.2
2018-07-03T22:38:18.731Z,12.1
2018-07-03T22:38:35.491Z,12.9
2018-07-03T22:38:52.242Z,11.2
2018-07-03T22:39:09.171Z,8.9
2018-07-03T22:39:26.019Z,11.7
2018-07-03T22:39:42.737Z,12.6
2018-07-03T22:39:59.521Z,13.1
2018-07-03T22:40:16.368Z,14.9
2018-07-03T22:40:33.230Z,13.2
2018-07-03T22:40:50.082Z,13.8
2018-07-03T22:41:06.944Z,14
2018-07-03T22:41:23.789Z,12.2
2018-07-03T22:41:40.651Z,12.8
2018-07-03T22:41:57.497Z,14.9
2018-07-03T22:42:14.354Z,15
2018-07-03T22:42:31.205Z,13.3
2018-07-03T22:42:48.098Z,10.7
2018-07-03T22:43:04.960Z,11.9
2018-07-03T22:43:21.789Z,9.2
2018-07-03T22:43:38.632Z,10.3
2018-07-03T22:43:55.475Z,13.2
2018-07-03T22:44:12.299Z,12.6
2018-07-03T22:44:29.124Z,11.7
2018-07-03T22:44:45.956Z,14.8
2018-07-03T22:45:02.769Z,14
2018-07-03T22:45:19.589Z,11.5
2018-07-03T22:45:36.428Z,12
2018-07-03T22:45:53.703Z,16.299999
2018-07-03T22:46:10.539Z,16.299999
2018-07-03T22:46:27.372Z,13.3
2018-07-03T22:46:44.184Z,13.1
2018-07-03T22:47:01.018Z,14.4
2018-07-03T22:47:17.992Z,14.3
2018-07-03T22:47:34.813Z,14.7
2018-07-03T22:47:51.942Z,13.3
2018-07-03T22:48:08.769Z,12.1
2018-07-03T22:48:25.791Z,12
2018-07-03T22:48:42.610Z,11
2018-07-03T22:48:59.436Z,14.2
2018-07-03T22:49:16.249Z,15.4
2018-07-03T22:49:33.067Z,12.1
2018-07-03T22:49:49.917Z,9
2018-07-03T22:50:06.749Z,10
2018-07-03T22:50:23.582Z,12.9
2018-07-03T22:50:40.417Z,13.6
2018-07-03T22:50:57.240Z,13.2
2018-07-03T22:51:14.092Z,12.4
2018-07-03T22:51:30.926Z,10.3
2018-07-03T22:51:47.726Z,12.2
2018-07-03T22:52:05.244Z,11.5
2018-07-03T22:52:22.416Z,12.9
2018-07-03T22:52:40.174Z,13
2018-07-03T22:52:58.891Z,13.4
2018-07-03T22:53:16.964Z,13.6
2018-07-03T22:53:34.815Z,13.4
2018-07-03T22:53:53.043Z,10.5
2018-07-03T22:54:11.302Z,10.9
2018-07-03T22:54:28.572Z,14.4
2018-07-03T22:54:45.360Z,12.5
2018-07-03T22:55:02.301Z,9.9
2018-07-03T22:55:19.129Z,11.2
2018-07-03T22:55:36.946Z,13.4
2018-07-03T22:55:54.324Z,13.5
2018-07-03T22:56:11.129Z,12.1
2018-07-03T22:56:27.979Z,11.6
2018-07-03T22:56:44.751Z,13.7
2018-07-03T22:57:01.586Z,12.7
2018-07-03T22:57:18.399Z,11.8
2018-07-03T22:57:35.227Z,10
2018-07-03T22:57:52.033Z,10.5
2018-07-03T22:58:08.768Z,12.5
2018-07-03T22:58:25.549Z,11
2018-07-03T22:58:43.259Z,10.7
2018-07-03T22:59:00.018Z,10
2018-07-03T22:59:16.752Z,11.2
2018-07-03T22:59:33.516Z,12.3
2018-07-03T22:59:50.263Z,11.4
2018-07-03T23:00:06.999Z,12.5
2018-07-03T23:00:23.745Z,10.3
2018-07-03T23:00:40.484Z,11.1
2018-07-03T23:00:57.247Z,12.7
2018-07-03T23:01:13.958Z,10.5
2018-07-03T23:01:30.752Z,9
2018-07-03T23:01:47.488Z,10.8
2018-07-03T23:02:04.238Z,12.6
2018-07-03T23:02:20.982Z,11
2018-07-03T23:02:37.721Z,9.5
2018-07-03T23:02:54.462Z,9.7
2018-07-03T23:03:11.214Z,9.4
2018-07-03T23:03:27.950Z,9.6
2018-07-03T23:03:44.694Z,11.5
2018-07-03T23:04:02.457Z,10.9
2018-07-03T23:04:19.166Z,10
2018-07-03T23:04:35.921Z,9.5
2018-07-03T23:04:52.673Z,11.2
2018-07-03T23:05:09.452Z,11.1
2018-07-03T23:05:26.185Z,11.8
2018-07-03T23:05:43.003Z,13.5
2018-07-03T23:05:59.795Z,11.2
2018-07-03T23:06:16.565Z,10.7
2018-07-03T23:06:33.321Z,10.4
2018-07-03T23:06:50.061Z,9.4
2018-07-03T23:07:06.804Z,10.1
2018-07-03T23:07:23.530Z,12.6
2018-07-03T23:07:40.302Z,11.2
2018-07-03T23:07:57.011Z,11.4
2018-07-03T23:08:13.764Z,11.6
2018-07-03T23:08:30.521Z,12
2018-07-03T23:08:47.279Z,11.3
2018-07-03T23:09:04.025Z,9.5
2018-07-03T23:09:20.773Z,9.4
2018-07-03T23:09:37.526Z,9
2018-07-03T23:09:54.276Z,9.4
2018-07-03T23:10:11.044Z,12.5
2018-07-03T23:10:27.777Z,11.5
2018-07-03T23:10:44.571Z,8.6
2018-07-03T23:11:01.356Z,8.1
2018-07-03T23:11:18.090Z,10.9
2018-07-03T23:11:34.843Z,12.1
2018-07-03T23:11:51.574Z,12.6
2018-07-03T23:12:08.325Z,12.4
2018-07-03T23:12:25.101Z,9.1
2018-07-03T23:12:41.876Z,9
2018-07-03T23:12:58.660Z,9.7
2018-07-03T23:13:15.427Z,10.1
2018-07-03T23:13:32.221Z,12.3
2018-07-03T23:13:49.042Z,10.1
2018-07-03T23:14:05.811Z,10.5
2018-07-03T23:14:22.590Z,11.3
2018-07-03T23:14:39.371Z,10.7
2018-07-03T23:14:56.143Z,10.4
2018-07-03T23:15:12.906Z,9.7
2018-07-03T23:15:29.676Z,11
2018-07-03T23:15:46.408Z,10.8
2018-07-03T23:16:03.172Z,11.3
2018-07-03T23:16:19.924Z,11.4
2018-07-03T23:16:36.649Z,11.6
2018-07-03T23:16:53.405Z,9.8
2018-07-03T23:17:10.191Z,12.2
2018-07-03T23:17:26.915Z,10.9
2018-07-03T23:17:43.664Z,9
2018-07-03T23:18:00.434Z,10.3
2018-07-03T23:18:17.165Z,11.5
2018-07-03T23:18:33.924Z,12
2018-07-03T23:18:50.672Z,10.8
2018-07-03T23:19:07.405Z,9.5
2018-07-03T23:19:24.152Z,9.2
2018-07-03T23:19:40.912Z,8.5
2018-07-03T23:19:57.666Z,10.2
2018-07-03T23:20:14.408Z,11.4
2018-07-03T23:20:31.161Z,10.6
2018-07-03T23:20:47.862Z,11.1
2018-07-03T23:21:04.624Z,10.1
2018-07-03T23:21:21.356Z,7.6
2018-07-03T23:21:38.103Z,9
2018-07-03T23:21:54.848Z,10
2018-07-03T23:22:11.589Z,9.6
2018-07-03T23:22:28.328Z,10.5
2018-07-03T23:22:45.076Z,10.4
2018-07-03T23:23:01.825Z,9.7
2018-07-03T23:23:18.564Z,10
2018-07-03T23:23:35.313Z,9.3
2018-07-03T23:23:52.066Z,8.9
2018-07-03T23:24:08.811Z,8.9
2018-07-03T23:24:25.527Z,10.3
2018-07-03T23:24:42.299Z,9.4
2018-07-03T23:24:59.023Z,9
2018-07-03T23:25:15.757Z,10.1
2018-07-03T23:25:32.506Z,10.4
2018-07-03T23:25:49.251Z,9.1
2018-07-03T23:26:06.017Z,10.2
2018-07-03T23:26:22.781Z,9.7
2018-07-03T23:26:39.505Z,9.6
2018-07-03T23:26:56.247Z,9.3
2018-07-03T23:27:12.995Z,10.4
2018-07-03T23:27:29.758Z,11
2018-07-03T23:27:46.508Z,10.5
2018-07-03T23:28:03.231Z,8.5
2018-07-03T23:28:19.969Z,8.4
2018-07-03T23:28:36.719Z,8.2
2018-07-03T23:28:53.471Z,8.5
2018-07-03T23:29:10.203Z,10.2
2018-07-03T23:29:26.943Z,8.7
2018-07-03T23:29:43.699Z,7.9
2018-07-03T23:30:00.435Z,9.5
2018-07-03T23:30:17.183Z,10.8
2018-07-03T23:30:33.936Z,9
2018-07-03T23:30:50.681Z,9.3
2018-07-03T23:31:08.448Z,10.5
2018-07-03T23:31:25.326Z,9.2
2018-07-03T23:31:42.015Z,8.6
2018-07-03T23:31:58.776Z,8.9
2018-07-03T23:32:15.568Z,10.4
2018-07-03T23:32:32.356Z,11.3
2018-07-03T23:32:49.125Z,9.9
2018-07-03T23:33:05.906Z,7.4
2018-07-03T23:33:23.631Z,8.9
2018-07-03T23:33:40.374Z,8.9
2018-07-03T23:33:57.122Z,8.2
2018-07-03T23:34:13.881Z,8.6
2018-07-03T23:34:30.627Z,8.5
2018-07-03T23:34:47.357Z,8.4
2018-07-03T23:35:04.101Z,8.2
2018-07-03T23:35:20.834Z,8.9
2018-07-03T23:35:37.607Z,8.4
2018-07-03T23:35:54.353Z,8.3
2018-07-03T23:36:11.097Z,9.1
2018-07-03T23:36:27.848Z,8.5
2018-07-03T23:36:44.549Z,8.6
2018-07-03T23:37:01.294Z,8.7
2018-07-03T23:37:18.024Z,7.4
2018-07-03T23:37:34.767Z,8.2
2018-07-03T23:37:51.523Z,8.1
2018-07-03T23:38:08.270Z,9
2018-07-03T23:38:25.008Z,9.5
2018-07-03T23:38:41.736Z,9.1
2018-07-03T23:38:58.494Z,8.9
2018-07-03T23:39:15.230Z,9.1
2018-07-03T23:39:31.973Z,9
2018-07-03T23:39:48.720Z,8.6
2018-07-03T23:40:05.475Z,9.2
2018-07-03T23:40:22.198Z,9.1
2018-07-03T23:40:38.991Z,8.8
2018-07-03T23:40:55.718Z,7.1
2018-07-03T23:41:12.447Z,7.1
2018-07-03T23:41:29.188Z,8.1
2018-07-03T23:41:45.933Z,7.9
2018-07-03T23:42:02.674Z,8.9
2018-07-03T23:42:19.425Z,7.9
2018-07-03T23:42:36.154Z,7.2
2018-07-03T23:42:52.895Z,7.9
2018-07-03T23:43:09.632Z,9
2018-07-03T23:43:27.407Z,8.5
2018-07-03T23:43:44.161Z,6.1
2018-07-03T23:44:00.914Z,6.3
2018-07-03T23:44:17.654Z,7.4
2018-07-03T23:44:34.397Z,7.8
2018-07-03T23:44:51.151Z,8
2018-07-03T23:45:07.894Z,7.5
2018-07-03T23:45:24.639Z,7.3
2018-07-03T23:45:41.391Z,7.2
2018-07-03T23:45:58.167Z,7.9
2018-07-03T23:46:14.910Z,6.6
2018-07-03T23:46:31.656Z,7.7
2018-07-03T23:46:48.400Z,8.9
2018-07-03T23:47:05.138Z,8.9
2018-07-03T23:47:21.867Z,7.3
2018-07-03T23:47:38.607Z,9.7
2018-07-03T23:47:55.356Z,10.1
2018-07-03T23:48:12.107Z,8.3
2018-07-03T23:48:28.846Z,8
2018-07-03T23:48:45.601Z,9.2
2018-07-03T23:49:02.317Z,8.7
2018-07-03T23:49:19.077Z,8.4
2018-07-03T23:49:35.833Z,9.7
2018-07-03T23:49:52.565Z,8.4
2018-07-03T23:50:09.314Z,7.5
2018-07-03T23:50:26.068Z,8.3
2018-07-03T23:50:42.840Z,9
2018-07-03T23:50:59.579Z,8.2
2018-07-03T23:51:16.327Z,8.1
2018-07-03T23:51:33.071Z,9.8
2018-07-03T23:51:49.821Z,9.8
2018-07-03T23:52:06.570Z,8.9
2018-07-03T23:52:23.311Z,9.5
2018-07-03T23:52:40.060Z,9.1
2018-07-03T23:52:56.815Z,8.2
2018-07-03T23:53:13.550Z,8.7
2018-07-03T23:53:30.299Z,7.9
2018-07-03T23:53:47.051Z,7.4
2018-07-03T23:54:03.784Z,7.8
2018-07-03T23:54:20.533Z,7.4
2018-07-03T23:54:37.277Z,8.2
2018-07-03T23:54:55.021Z,8.8
2018-07-03T23:55:11.784Z,8.8
2018-07-03T23:55:28.536Z,8.5
2018-07-03T23:55:45.274Z,7.1
2018-07-03T23:56:02.055Z,7.5
2018-07-03T23:56:18.812Z,8.8
2018-07-03T23:56:35.548Z,9.5
2018-07-03T23:56:52.284Z,9
2018-07-03T23:57:09.032Z,8.2
2018-07-03T23:57:25.841Z,7.8
2018-07-03T23:57:42.617Z,10
2018-07-03T23:57:59.403Z,7.9
2018-07-03T23:58:16.179Z,8.3
2018-07-03T23:58:32.954Z,8.6
2018-07-03T23:58:49.746Z,7.9
2018-07-03T23:59:06.545Z,7.4
2018-07-03T23:59:23.326Z,7.8
2018-07-03T23:59:40.116Z,8.5
2018-07-03T23:59:56.874Z,7.6
